Time;durP1;ratioP1;P1;durP2;ratioP2;P2;SDS_P1;SDS_P2;PMS_P1;PMS_P2;Temp;Humidity;BMP_temperature;BMP_pressure;BME280_temperature;BME280_humidity;BME280_pressure;Samples;Min_cycle;Max_cycle;Signal;HPM_P1;HPM_P2
2023/03/06 00:01:47;;;;;;;;;;;;;;;-144.99;100.00;52513.31;5056630;28;19985;-72
2023/03/06 00:04:14;;;;;;;;;;;;;;;-144.99;100.00;52533.69;5059321;28;19967;-71
2023/03/06 00:06:40;;;;;;;;;;;;;;;-144.99;100.00;52541.84;5054728;28;20443;-71
2023/03/06 00:09:08;;;;;;;;;;;;;;;-144.99;100.00;52541.84;5062005;28;20329;-71
2023/03/06 00:11:34;;;;;;;;;;;;;;;-144.99;100.00;52541.84;5057750;28;19995;-67
2023/03/06 00:14:01;;;;;;;;;;;;;;;-144.99;100.00;52519.44;5057156;28;19996;-67
2023/03/06 00:16:27;;;;;;;;;;;;;;;-144.99;100.00;52558.16;5053883;28;20050;-68
2023/03/06 00:18:55;;;;;;;;;;;;;;;-144.99;100.00;52545.94;5057533;28;19972;-70
2023/03/06 00:21:21;;;;;;;;;;;;;;;-144.99;100.00;52513.31;5057974;28;20254;-71
2023/03/06 00:23:48;;;;;;;;;;;;;;;-144.99;100.00;52527.59;5055547;28;20416;-72
2023/03/06 00:26:14;;;;;;;;;;;;;;;-144.99;100.00;52554.09;5064115;28;20130;-71
2023/03/06 00:28:41;;;;;;;;;;;;;;;-144.99;100.00;52537.78;5056847;28;20428;-71
2023/03/06 00:31:07;;;;;;;;;;;;;;;-144.99;100.00;52525.56;5066459;28;19956;-70
2023/03/06 00:33:34;;;;;;;;;;;;;;;-144.99;100.00;52550.00;5055610;28;20404;-70
2023/03/06 00:36:03;;;;;;;;;;;;;;;-144.99;100.00;52564.28;5054023;28;20048;-70
2023/03/06 00:38:32;;;;;;;;;;;;;;;-144.99;100.00;52558.16;5058585;28;19954;-67
2023/03/06 00:40:58;;;;;;;;;;;;;;;-144.99;100.00;52568.34;5057985;28;20043;-71
2023/03/06 00:43:25;;;;;;;;;;;;;;;-144.99;100.00;52545.94;5054645;28;20460;-72
2023/03/06 00:45:51;;;;;;;;;;;;;;;-144.99;100.00;52519.44;5071990;28;19998;-72
2023/03/06 00:48:18;;;;;;;;;;;;;;;-144.99;100.00;52533.69;5063749;28;20071;-73
2023/03/06 00:50:44;;;;;;;;;;;;;;;-144.99;100.00;52505.16;5061583;28;20025;-71
2023/03/06 00:53:13;;;;;;;;;;;;;;;-144.99;100.00;52574.47;5062121;28;20319;-71
2023/03/06 00:55:39;;;;;;;;;;;;;;;-144.99;100.00;52550.00;5060090;28;20365;-71
2023/03/06 00:58:06;;;;;;;;;;;;;;;-144.99;100.00;52580.59;5056780;28;20009;-68
2023/03/06 01:00:32;;;;;;;;;;;;;;;-144.99;100.00;52566.31;5062596;28;20011;-69
2023/03/06 01:02:59;;;;;;;;;;;;;;;-144.99;100.00;52533.69;5062130;28;20327;-69
2023/03/06 01:05:25;;;;;;;;;;;;;;;-144.99;100.00;52488.84;5060249;28;20053;-68
2023/03/06 01:07:52;;;;;;;;;;;;;;;-144.99;100.00;52545.94;5053539;28;20057;-69
2023/03/06 01:10:20;;;;;;;;;;;;;;;-144.99;100.00;52550.00;5055994;28;19994;-69
2023/03/06 01:12:46;;;;;;;;;;;;;;;-144.99;100.00;52511.28;5056630;28;19941;-68
2023/03/06 01:15:13;;;;;;;;;;;;;;;-144.99;100.00;52566.31;5050676;28;20519;-69
2023/03/06 01:17:40;;;;;;;;;;;;;;;-144.99;100.00;52547.97;5061398;28;19965;-69
2023/03/06 01:20:07;;;;;;;;;;;;;;;-144.99;100.00;52513.31;5061450;28;20056;-72
2023/03/06 01:22:33;;;;;;;;;;;;;;;-144.99;100.00;52529.63;5060340;28;19978;-72
2023/03/06 01:25:00;;;;;;;;;;;;;;;-144.99;100.00;52537.78;5059332;28;20067;-72
2023/03/06 01:27:28;;;;;;;;;;;;;;;-144.99;100.00;52574.47;5053865;28;20098;-68
2023/03/06 01:29:54;;;;;;;;;;;;;;;-144.99;100.00;52529.63;5059787;28;20027;-70
2023/03/06 01:32:21;;;;;;;;;;;;;;;-144.99;100.00;52554.09;5059553;28;20020;-71
2023/03/06 01:34:48;;;;;;;;;;;;;;;-144.99;100.00;52550.00;5057662;28;20038;-71
2023/03/06 01:37:14;;;;;;;;;;;;;;;-144.99;100.00;52562.25;5054381;28;20060;-70
2023/03/06 01:39:41;;;;;;;;;;;;;;;-144.99;100.00;52560.19;5060851;28;19948;-70
2023/03/06 01:42:07;;;;;;;;;;;;;;;-144.99;100.00;52568.34;5057385;28;20070;-70
2023/03/06 01:44:35;;;;;;;;;;;;;;;-144.99;100.00;52517.41;5051873;28;20042;-70
2023/03/06 01:47:02;;;;;;;;;;;;;;;-144.99;100.00;52562.25;5052005;28;20475;-70
2023/03/06 01:49:30;;;;;;;;;;;;;;;-144.99;100.00;52505.16;5059522;28;19995;-69
2023/03/06 01:52:00;;;;;;;;;;;;;;;-144.99;100.00;52529.63;4713574;28;10000343;-71
2023/03/06 01:54:28;;;;;;;;;;;;;;;-144.99;100.00;52550.00;5051027;28;19956;-71
2023/03/06 01:56:56;;;;;;;;;;;;;;;-144.99;100.00;52533.69;5060413;28;19999;-70
2023/03/06 01:59:25;;;;;;;;;;;;;;;-144.99;100.00;52574.47;5054970;28;19984;-69
2023/03/06 02:01:53;;;;;;;;;;;;;;;-144.99;100.00;52556.13;5062758;28;19948;-69
2023/03/06 02:04:20;;;;;;;;;;;;;;;-144.99;100.00;52558.16;5059623;28;19997;-68
2023/03/06 02:06:47;;;;;;;;;;;;;;;-144.99;100.00;52578.53;5055801;28;20232;-68
2023/03/06 02:09:15;;;;;;;;;;;;;;;-144.99;100.00;52521.47;5061882;28;19949;-69
2023/03/06 02:11:42;;;;;;;;;;;;;;;-144.99;100.00;52501.09;5066976;28;19944;-72
2023/03/06 02:14:11;;;;;;;;;;;;;;;-144.99;100.00;52552.03;5059461;28;20133;-71
2023/03/06 02:16:37;;;;;;;;;;;;;;;-144.99;100.00;52570.38;5067979;28;20034;-71
2023/03/06 02:19:07;;;;;;;;;;;;;;;-144.99;100.00;52509.25;5063612;28;20004;-71
2023/03/06 02:21:35;;;;;;;;;;;;;;;-144.99;100.00;52521.47;5064765;28;20205;-71
2023/03/06 02:24:07;;;;;;;;;;;;;;;-144.99;100.00;52554.09;5062224;28;19925;-73
2023/03/06 02:26:35;;;;;;;;;;;;;;;-144.99;100.00;52517.41;5068000;28;19945;-71
2023/03/06 02:29:02;;;;;;;;;;;;;;;-144.99;100.00;52550.00;5058765;28;19996;-72
2023/03/06 02:31:30;;;;;;;;;;;;;;;-144.99;100.00;52533.69;5070776;28;20034;-71
2023/03/06 02:34:05;;;;;;;;;;;;;;;-144.99;100.00;52543.91;5067459;28;20438;-71
2023/03/06 02:36:33;;;;;;;;;;;;;;;-144.99;100.00;52488.84;5062704;28;19967;-72
2023/03/06 02:39:00;;;;;;;;;;;;;;;-144.99;100.00;52529.63;5065817;28;19970;-70
2023/03/06 02:41:26;;;;;;;;;;;;;;;-144.99;100.00;52545.94;5059524;28;20087;-71
2023/03/06 02:43:54;;;;;;;;;;;;;;;-144.99;100.00;52533.69;5054224;28;20005;-72
2023/03/06 02:46:21;;;;;;;;;;;;;;;-144.99;100.00;52566.31;5068174;28;19997;-72
2023/03/06 02:48:47;;;;;;;;;;;;;;;-144.99;100.00;52558.16;5053203;28;19941;-69
2023/03/06 02:51:14;;;;;;;;;;;;;;;-144.99;100.00;52554.09;5061905;28;20082;-69
2023/03/06 02:53:40;;;;;;;;;;;;;;;-144.99;100.00;52560.19;5057850;28;19941;-69
2023/03/06 02:56:07;;;;;;;;;;;;;;;-144.99;100.00;52586.69;5067590;28;19948;-69
2023/03/06 02:58:33;;;;;;;;;;;;;;;-144.99;100.00;52509.25;5056608;28;20000;-69
2023/03/06 03:01:01;;;;;;;;;;;;;;;-144.99;100.00;52545.94;5063026;28;20006;-69
2023/03/06 03:03:28;;;;;;;;;;;;;;;-144.99;100.00;52554.09;5062250;28;19993;-69
2023/03/06 03:05:54;;;;;;;;;;;;;;;-144.99;100.00;52558.16;5062739;28;20026;-69
2023/03/06 03:08:21;;;;;;;;;;;;;;;-144.99;100.00;52554.09;5060994;28;20345;-69
2023/03/06 03:10:47;;;;;;;;;;;;;;;-144.99;100.00;52578.53;5061934;28;19980;-69
2023/03/06 03:13:14;;;;;;;;;;;;;;;-144.99;100.00;52529.63;5063997;28;20366;-69
2023/03/06 03:15:41;;;;;;;;;;;;;;;-144.99;100.00;52560.19;5059404;28;19983;-70
2023/03/06 03:18:10;;;;;;;;;;;;;;;-144.99;100.00;52584.66;5068253;28;20139;-69
2023/03/06 03:20:36;;;;;;;;;;;;;;;-144.99;100.00;52525.56;5057238;28;20182;-68
2023/03/06 03:23:03;;;;;;;;;;;;;;;-144.99;100.00;52521.47;5068562;28;19938;-67
2023/03/06 03:25:29;;;;;;;;;;;;;;;-144.99;100.00;52566.31;5062113;28;19956;-67
2023/03/06 03:27:56;;;;;;;;;;;;;;;-144.99;100.00;52562.25;5060084;28;19970;-67
2023/03/06 03:30:23;;;;;;;;;;;;;;;-144.99;100.00;52562.25;5064554;28;20050;-67
2023/03/06 03:32:49;;;;;;;;;;;;;;;-144.99;100.00;52552.03;5066128;28;19981;-71
2023/03/06 03:35:17;;;;;;;;;;;;;;;-144.99;100.00;52554.09;5061458;28;19959;-71
2023/03/06 03:37:44;;;;;;;;;;;;;;;-144.99;100.00;52541.84;5065068;28;20385;-70
2023/03/06 03:40:11;;;;;;;;;;;;;;;-144.99;100.00;52584.66;5062651;28;19946;-71
2023/03/06 03:42:37;;;;;;;;;;;;;;;-144.99;100.00;52588.75;5069789;28;20021;-65
2023/03/06 03:45:04;;;;;;;;;;;;;;;-144.99;100.00;52574.47;5065581;28;19964;-66
2023/03/06 03:47:30;;;;;;;;;;;;;;;-144.99;100.00;52558.16;5066989;28;20027;-75
2023/03/06 03:49:57;;;;;;;;;;;;;;;-144.99;100.00;52578.53;5058142;28;20391;-68
2023/03/06 03:52:25;;;;;;;;;;;;;;;-144.99;100.00;52558.16;5064963;28;19994;-68
2023/03/06 03:54:51;;;;;;;;;;;;;;;-144.99;100.00;52552.03;5057998;28;20000;-68
2023/03/06 03:57:18;;;;;;;;;;;;;;;-144.99;100.00;52554.09;5066435;28;20495;-68
2023/03/06 03:59:45;;;;;;;;;;;;;;;-144.99;100.00;52566.31;5063653;28;20339;-69
2023/03/06 04:02:11;;;;;;;;;;;;;;;-144.99;100.00;52545.94;5069464;28;19992;-69
2023/03/06 04:04:38;;;;;;;;;;;;;;;-144.99;100.00;52572.44;5063686;28;20023;-69
2023/03/06 04:07:04;;;;;;;;;;;;;;;-144.99;100.00;52590.78;5067003;28;19946;-69
2023/03/06 04:09:32;;;;;;;;;;;;;;;-144.99;100.00;52554.09;5076982;28;20009;-69
2023/03/06 04:11:59;;;;;;;;;;;;;;;-144.99;100.00;52541.84;5082135;23;20012;-68
2023/03/06 04:14:25;;;;;;;;;;;;;;;-144.99;100.00;52537.78;5070711;28;19991;-67
2023/03/06 04:16:52;;;;;;;;;;;;;;;-144.99;100.00;52547.97;5071610;28;20021;-66
2023/03/06 04:19:18;;;;;;;;;;;;;;;-144.99;100.00;52554.09;5069015;28;19987;-68
2023/03/06 04:21:45;;;;;;;;;;;;;;;-144.99;100.00;52562.25;5072956;28;19999;-67
2023/03/06 04:24:11;;;;;;;;;;;;;;;-144.99;100.00;52550.00;5073158;28;19992;-69
2023/03/06 04:26:39;;;;;;;;;;;;;;;-144.99;100.00;52541.84;5075177;28;20282;-68
2023/03/06 04:29:06;;;;;;;;;;;;;;;-144.99;100.00;52574.47;5076749;28;19946;-69
2023/03/06 04:31:32;;;;;;;;;;;;;;;-144.99;100.00;52523.50;5075869;28;20298;-65
2023/03/06 04:33:59;;;;;;;;;;;;;;;-144.99;100.00;52541.84;5091238;28;19956;-65
2023/03/06 04:36:26;;;;;;;;;;;;;;;-144.99;100.00;52550.00;5090358;28;19992;-65
2023/03/06 04:38:53;;;;;;;;;;;;;;;-144.99;100.00;52570.38;5089805;28;19973;-66
2023/03/06 04:41:19;;;;;;;;;;;;;;;-144.99;100.00;52578.53;5086909;28;19943;-65
2023/03/06 04:43:47;;;;;;;;;;;;;;;-144.99;100.00;52550.00;5076413;28;20006;-65
2023/03/06 04:46:14;;;;;;;;;;;;;;;-144.99;100.00;52552.03;5076341;28;19989;-65
2023/03/06 04:48:40;;;;;;;;;;;;;;;-144.99;100.00;52558.16;5080153;28;20176;-65
2023/03/06 04:51:07;;;;;;;;;;;;;;;-144.99;100.00;52566.31;5074306;28;20334;-65
2023/03/06 04:53:34;;;;;;;;;;;;;;;-144.99;100.00;52545.94;5077661;28;19935;-65
2023/03/06 04:56:00;;;;;;;;;;;;;;;-144.99;100.00;52545.94;5079281;28;19977;-64
2023/03/06 04:58:27;;;;;;;;;;;;;;;-144.99;100.00;52560.19;5075217;28;19955;-64
2023/03/06 05:00:55;;;;;;;;;;;;;;;-144.99;100.00;52566.31;5078927;28;19962;-64
2023/03/06 05:03:21;;;;;;;;;;;;;;;-144.99;100.00;52547.97;5080194;28;19942;-64
2023/03/06 05:05:48;;;;;;;;;;;;;;;-144.99;100.00;52586.69;5080929;28;20002;-63
2023/03/06 05:08:16;;;;;;;;;;;;;;;-144.99;100.00;52570.38;5081370;28;19945;-68
2023/03/06 05:10:43;;;;;;;;;;;;;;;-144.99;100.00;52584.66;5083270;28;19935;-67
2023/03/06 05:13:10;;;;;;;;;;;;;;;-144.99;100.00;52566.31;5090426;28;19993;-68
2023/03/06 05:15:36;;;;;;;;;;;;;;;-144.99;100.00;52578.53;5087880;28;19952;-68
2023/03/06 05:18:04;;;;;;;;;;;;;;;-144.99;100.00;52497.00;5095144;28;20011;-68
2023/03/06 05:20:31;;;;;;;;;;;;;;;-144.99;100.00;52580.59;5090091;28;19970;-67
2023/03/06 05:22:57;;;;;;;;;;;;;;;-144.99;100.00;52558.16;5093799;28;19944;-67
2023/03/06 05:25:24;;;;;;;;;;;;;;;-144.99;100.00;52552.03;5091988;28;19969;-66
2023/03/06 05:27:50;;;;;;;;;;;;;;;-144.99;100.00;52590.78;5088211;28;19923;-66
2023/03/06 05:30:17;;;;;;;;;;;;;;;-144.99;100.00;52574.47;5083481;28;19944;-66
2023/03/06 05:32:44;;;;;;;;;;;;;;;-144.99;100.00;52574.47;5078954;28;19973;-66
2023/03/06 05:35:16;;;;;;;;;;;;;;;-144.99;100.00;52543.91;5078687;28;20011;-66
2023/03/06 05:37:42;;;;;;;;;;;;;;;-144.99;100.00;52539.81;5078204;28;20439;-65
2023/03/06 05:40:09;;;;;;;;;;;;;;;-144.99;100.00;52537.78;5075493;28;19985;-66
2023/03/06 05:42:36;;;;;;;;;;;;;;;-144.99;100.00;52570.38;5080030;28;19942;-65
2023/03/06 05:45:03;;;;;;;;;;;;;;;-144.99;100.00;52537.78;5078123;28;19954;-65
2023/03/06 05:47:30;;;;;;;;;;;;;;;-144.99;100.00;52562.25;5079102;28;19993;-65
2023/03/06 05:49:56;;;;;;;;;;;;;;;-144.99;100.00;52566.31;5075708;28;20454;-67
2023/03/06 05:52:24;;;;;;;;;;;;;;;-144.99;100.00;52562.25;5074890;28;20393;-66
2023/03/06 05:54:51;;;;;;;;;;;;;;;-144.99;100.00;52513.31;5076343;28;20428;-66
2023/03/06 05:57:18;;;;;;;;;;;;;;;-144.99;100.00;52554.09;5081002;28;19943;-68
2023/03/06 05:59:45;;;;;;;;;;;;;;;-144.99;100.00;52547.97;5090059;28;19976;-69
2023/03/06 06:02:12;;;;;;;;;;;;;;;-144.99;100.00;52523.50;5083049;28;19939;-72
2023/03/06 06:04:38;;;;;;;;;;;;;;;-144.99;100.00;52560.19;5090918;28;19956;-73
2023/03/06 06:07:05;;;;;;;;;;;;;;;-144.99;100.00;52531.66;5081603;28;19943;-72
2023/03/06 06:09:33;;;;;;;;;;;;;;;-144.99;100.00;52566.31;5080516;28;19946;-72
2023/03/06 06:12:02;;;;;;;;;;;;;;;-144.99;100.00;52509.25;5079705;28;20357;-72
2023/03/06 06:14:29;;;;;;;;;;;;;;;-144.99;100.00;52513.31;5065861;28;20512;-68
2023/03/06 06:16:56;;;;;;;;;;;;;;;-144.99;100.00;52582.63;4365785;28;10000754;-68
2023/03/06 06:19:22;;;;;;;;;;;;;;;-144.99;100.00;52558.16;5065395;28;19970;-69
2023/03/06 06:21:50;;;;;;;;;;;;;;;-144.99;100.00;52545.94;5063231;28;20003;-69
2023/03/06 06:24:17;;;;;;;;;;;;;;;-144.99;100.00;52560.19;5061866;28;19967;-69
2023/03/06 06:26:45;;;;;;;;;;;;;;;-144.99;100.00;52566.31;5066263;28;19968;-70
2023/03/06 06:29:12;;;;;;;;;;;;;;;-144.99;100.00;52505.16;5066633;28;19947;-69
2023/03/06 06:31:39;;;;;;;;;;;;;;;-144.99;100.00;52566.31;5067249;28;19943;-69
2023/03/06 06:34:06;;;;;;;;;;;;;;;-144.99;100.00;52545.94;5067003;28;20355;-69
2023/03/06 06:36:33;;;;;;;;;;;;;;;-144.99;100.00;52509.25;5068200;28;19968;-69
2023/03/06 06:38:59;;;;;;;;;;;;;;;-144.99;100.00;52533.69;5070484;28;20503;-68
2023/03/06 06:41:26;;;;;;;;;;;;;;;-144.99;100.00;52541.84;5070617;28;19947;-68
2023/03/06 06:43:54;;;;;;;;;;;;;;;-144.99;100.00;52521.47;5070868;28;20524;-68
2023/03/06 06:46:21;;;;;;;;;;;;;;;-144.99;100.00;52552.03;5072105;28;20474;-69
2023/03/06 06:48:48;;;;;;;;;;;;;;;-144.99;100.00;52554.09;5070211;28;19945;-69
2023/03/06 06:51:14;;;;;;;;;;;;;;;-144.99;100.00;52545.94;5076851;28;19944;-68
2023/03/06 06:53:41;;;;;;;;;;;;;;;-144.99;100.00;52523.50;5073029;28;20396;-68
2023/03/06 06:56:07;;;;;;;;;;;;;;;-144.99;100.00;52517.41;5072686;28;19964;-69
2023/03/06 06:58:34;;;;;;;;;;;;;;;-144.99;100.00;52578.53;5072963;28;20012;-69
2023/03/06 07:01:05;;;;;;;;;;;;;;;-144.99;100.00;52533.69;5073626;28;20003;-69
2023/03/06 07:03:32;;;;;;;;;;;;;;;-144.99;100.00;52501.09;5078748;28;19959;-69
2023/03/06 07:05:58;;;;;;;;;;;;;;;-144.99;100.00;52533.69;5076050;28;20375;-70
2023/03/06 07:08:25;;;;;;;;;;;;;;;-144.99;100.00;52521.47;5069164;28;20025;-70
2023/03/06 07:10:51;;;;;;;;;;;;;;;-144.99;100.00;52525.56;5072224;28;20041;-70
2023/03/06 07:13:18;;;;;;;;;;;;;;;-144.99;100.00;52545.94;5071739;28;20386;-69
2023/03/06 07:15:45;;;;;;;;;;;;;;;-144.99;100.00;52509.25;5069603;28;20312;-69
2023/03/06 07:18:12;;;;;;;;;;;;;;;-144.99;100.00;52533.69;5067625;28;19972;-68
2023/03/06 07:20:39;;;;;;;;;;;;;;;-144.99;100.00;52550.00;5062269;28;20009;-70
2023/03/06 07:23:07;;;;;;;;;;;;;;;-144.99;100.00;52566.31;5069361;28;19953;-70
2023/03/06 07:25:34;;;;;;;;;;;;;;;-144.99;100.00;52511.28;5069580;28;20025;-69
2023/03/06 07:28:00;;;;;;;;;;;;;;;-144.99;100.00;52558.16;5073416;28;19940;-69
2023/03/06 07:30:27;;;;;;;;;;;;;;;-144.99;100.00;52537.78;5070680;28;19982;-68
2023/03/06 07:32:54;;;;;;;;;;;;;;;-144.99;100.00;52550.00;5083559;28;19943;-69
2023/03/06 07:35:22;;;;;;;;;;;;;;;-144.99;100.00;52539.81;5070033;28;19960;-69
2023/03/06 07:37:50;;;;;;;;;;;;;;;-144.99;100.00;52497.00;5069391;28;19943;-70
2023/03/06 07:40:16;;;;;;;;;;;;;;;-144.99;100.00;52492.94;5067789;28;19978;-67
2023/03/06 07:42:43;;;;;;;;;;;;;;;-144.99;100.00;52537.78;5070066;28;20448;-68
2023/03/06 07:45:11;;;;;;;;;;;;;;;-144.99;100.00;52533.69;5072532;28;20343;-69
2023/03/06 07:47:38;;;;;;;;;;;;;;;-144.99;100.00;52554.09;5080616;28;19935;-69
2023/03/06 07:50:06;;;;;;;;;;;;;;;-144.99;100.00;52480.72;5065495;28;19936;-69
2023/03/06 07:52:34;;;;;;;;;;;;;;;-144.99;100.00;52525.56;4718899;28;10000463;-69
2023/03/06 07:55:00;;;;;;;;;;;;;;;-144.99;100.00;52509.25;5069112;28;20248;-69
2023/03/06 07:57:27;;;;;;;;;;;;;;;-144.99;100.00;52574.47;5068833;28;20341;-69
2023/03/06 07:59:53;;;;;;;;;;;;;;;-144.99;100.00;52552.03;5066552;28;19943;-69
2023/03/06 08:02:20;;;;;;;;;;;;;;;-144.99;100.00;52545.94;5069011;28;19943;-69
2023/03/06 08:04:51;;;;;;;;;;;;;;;-144.99;100.00;52529.63;5062263;28;19932;-70
2023/03/06 08:07:17;;;;;;;;;;;;;;;-144.99;100.00;52521.47;5080369;28;19932;-68
2023/03/06 08:09:45;;;;;;;;;;;;;;;-144.99;100.00;52513.31;5068071;28;20412;-69
2023/03/06 08:12:12;;;;;;;;;;;;;;;-144.99;100.00;52515.34;5074054;28;19935;-69
2023/03/06 08:14:38;;;;;;;;;;;;;;;-144.99;100.00;52501.09;5078115;28;19947;-69
2023/03/06 08:17:06;;;;;;;;;;;;;;;-144.99;100.00;52545.94;5069779;28;19928;-69
2023/03/06 08:19:32;;;;;;;;;;;;;;;-144.99;100.00;52492.94;5066402;28;19929;-69
2023/03/06 08:21:59;;;;;;;;;;;;;;;-144.99;100.00;52541.84;5073909;28;20013;-69
2023/03/06 08:24:25;;;;;;;;;;;;;;;-144.99;100.00;52505.16;5073749;28;19929;-69
2023/03/06 08:26:53;;;;;;;;;;;;;;;-144.99;100.00;52527.59;5068586;28;19939;-69
2023/03/06 08:29:20;;;;;;;;;;;;;;;-144.99;100.00;52517.41;5066787;28;20320;-69
2023/03/06 08:31:47;;;;;;;;;;;;;;;-144.99;100.00;52525.56;5068594;28;19928;-69
2023/03/06 08:34:14;;;;;;;;;;;;;;;-144.99;100.00;52547.97;5068050;28;19994;-68
2023/03/06 08:36:41;;;;;;;;;;;;;;;-144.99;100.00;52468.47;5068324;28;20174;-69
2023/03/06 08:39:08;;;;;;;;;;;;;;;-144.99;100.00;52476.63;5068022;28;19924;-68
2023/03/06 08:41:34;;;;;;;;;;;;;;;-144.99;100.00;52533.69;5068084;28;19958;-70
2023/03/06 08:44:03;;;;;;;;;;;;;;;-144.99;100.00;52515.34;5066209;28;19935;-70
2023/03/06 08:46:30;;;;;;;;;;;;;;;-144.99;100.00;52505.16;5071065;28;19932;-69
2023/03/06 08:48:57;;;;;;;;;;;;;;;-144.99;100.00;52541.84;5066332;28;20007;-70
2023/03/06 08:51:24;;;;;;;;;;;;;;;-144.99;100.00;52492.94;5067561;28;19932;-69
2023/03/06 08:53:51;;;;;;;;;;;;;;;-144.99;100.00;52517.41;5071085;28;20299;-69
2023/03/06 08:56:18;;;;;;;;;;;;;;;-144.99;100.00;52515.34;5071182;28;19944;-68
2023/03/06 08:58:45;;;;;;;;;;;;;;;-144.99;100.00;52527.59;5065537;28;19932;-68
2023/03/06 09:01:14;;;;;;;;;;;;;;;-144.99;100.00;52537.78;5074445;28;19924;-68
2023/03/06 09:03:41;;;;;;;;;;;;;;;-144.99;100.00;52529.63;5065869;28;19929;-68
2023/03/06 09:06:07;;;;;;;;;;;;;;;-144.99;100.00;52525.56;5062981;28;19967;-68
2023/03/06 09:08:34;;;;;;;;;;;;;;;-144.99;100.00;52488.84;5067366;28;19928;-68
2023/03/06 09:11:00;;;;;;;;;;;;;;;-144.99;100.00;52501.09;5067856;28;20589;-69
2023/03/06 09:13:27;;;;;;;;;;;;;;;-144.99;100.00;52527.59;5062401;28;20443;-69
2023/03/06 09:15:53;;;;;;;;;;;;;;;-144.99;100.00;52509.25;5067022;28;19929;-68
2023/03/06 09:18:21;;;;;;;;;;;;;;;-144.99;100.00;52509.25;5063515;28;19939;-68
2023/03/06 09:20:48;;;;;;;;;;;;;;;-144.99;100.00;52517.41;5067377;28;19928;-67
2023/03/06 09:23:14;;;;;;;;;;;;;;;-144.99;100.00;52515.34;5066618;28;20408;-68
2023/03/06 09:25:41;;;;;;;;;;;;;;;-144.99;100.00;52521.47;5066825;28;19968;-68
2023/03/06 09:28:07;;;;;;;;;;;;;;;-144.99;100.00;52531.66;5065904;28;19954;-69
2023/03/06 09:30:34;;;;;;;;;;;;;;;-144.99;100.00;52494.97;5074180;28;19929;-69
2023/03/06 09:33:00;;;;;;;;;;;;;;;-144.99;100.00;52505.16;5067236;28;20001;-70
2023/03/06 09:35:28;;;;;;;;;;;;;;;-144.99;99.93;52507.19;5071738;28;19981;-69
2023/03/06 09:37:55;;;;;;;;;;;;;;;-144.99;99.27;52517.41;5069433;28;19929;-69
2023/03/06 09:40:25;;;;;;;;;;;;;;;-144.99;99.81;52492.94;5066928;28;20021;-68
2023/03/06 09:42:52;;;;;;;;;;;;;;;-144.99;99.51;52525.56;5071185;28;20050;-67
2023/03/06 09:45:20;;;;;;;;;;;;;;;-144.99;98.83;52478.66;5068531;28;19928;-68
2023/03/06 09:47:53;;;;;;;;;;;;;;;-144.99;96.70;52525.56;5065732;28;20308;-67
2023/03/06 09:50:35;;;;;;;;;;;;;;;-144.99;95.84;52525.56;5067145;28;20270;-68
2023/03/06 09:53:05;;;;;;;;;;;;;;;-144.99;96.54;52521.47;5061825;28;20002;-68
2023/03/06 09:55:32;;;;;;;;;;;;;;;-144.99;96.61;52472.56;5066339;28;20343;-67
2023/03/06 09:58:03;;;;;;;;;;;;;;;-144.99;95.42;52448.09;5067099;28;19954;-68
2023/03/06 10:00:33;;;;;;;;;;;;;;;-144.99;94.29;52466.44;5066833;28;19978;-66
2023/03/06 10:03:03;;;;;;;;;;;;;;;-144.99;89.73;52439.94;5066326;28;19928;-66
2023/03/06 10:05:35;;;;;;;;;;;;;;;-144.99;88.99;52501.09;5064034;28;19959;-64
2023/03/06 10:08:03;;;;;;;;;;;;;;;-144.99;88.76;52476.63;5061666;28;19936;-66
2023/03/06 10:10:36;;;;;;;;;;;;;;;-144.99;87.05;52484.78;5066156;28;19929;-67
2023/03/06 10:13:05;;;;;;;;;;;;;;;-144.99;84.95;52448.09;5071897;28;19924;-68
2023/03/06 10:15:34;;;;;;;;;;;;;;;-144.99;84.74;52403.25;5065538;28;19967;-67
2023/03/06 10:18:01;;;;;;;;;;;;;;;-144.99;83.03;52407.31;5063965;28;19932;-66
2023/03/06 10:20:33;;;;;;;;;;;;;;;-144.99;80.70;52409.38;5065565;28;19936;-66
2023/03/06 10:23:05;;;;;;;;;;;;;;;-144.99;76.47;52423.63;5065651;28;19932;-66
2023/03/06 10:25:36;;;;;;;;;;;;;;;-144.99;75.48;52407.31;5066151;28;19990;-66
2023/03/06 10:28:09;;;;;;;;;;;;;;;-144.99;74.05;52358.41;5064456;28;20017;-66
2023/03/06 10:30:40;;;;;;;;;;;;;;;-144.99;72.70;52346.19;5066001;28;19978;-66
2023/03/06 10:33:09;;;;;;;;;;;;;;;-144.99;71.24;52325.81;5065480;28;19928;-66
2023/03/06 10:35:44;;;;;;;;;;;;;;;-144.99;70.25;52323.75;5063540;28;19932;-66
2023/03/06 10:38:16;;;;;;;;;;;;;;;-144.99;69.85;52289.13;5059666;28;19932;-67
2023/03/06 10:40:47;;;;;;;;;;;;;;;-144.99;69.70;52291.16;5065525;28;20024;-66
2023/03/06 10:43:13;;;;;;;;;;;;;;;-144.99;67.63;52305.41;5065833;28;19933;-66
2023/03/06 10:45:50;;;;;;;;;;;;;;;-144.99;66.62;52211.66;5067337;28;19952;-67
2023/03/06 10:48:21;;;;;;;;;;;;;;;-144.99;65.93;52248.34;5066102;28;19932;-67
2023/03/06 10:50:48;;;;;;;;;;;;;;;-144.99;64.73;52248.34;5065212;28;19939;-67
2023/03/06 10:53:21;;;;;;;;;;;;;;;-144.99;64.26;52205.53;5064704;28;19933;-67
2023/03/06 10:55:51;;;;;;;;;;;;;;;-144.99;63.93;52187.19;5065354;28;19959;-68
2023/03/06 10:58:19;;;;;;;;;;;;;;;-144.99;63.02;52177.00;5063524;28;19928;-68
2023/03/06 11:00:46;;;;;;;;;;;;;;;-144.99;60.79;52142.38;5065667;28;19928;-69
2023/03/06 11:03:23;;;;;;;;;;;;;;;-144.99;59.60;52162.75;5068269;28;19936;-69
2023/03/06 11:05:53;;;;;;;;;;;;;;;-144.99;59.33;52254.47;5065485;28;20079;-69
2023/03/06 11:08:22;;;;;;;;;;;;;;;-144.99;58.33;52142.38;5064963;28;19964;-68
2023/03/06 11:10:55;;;;;;;;;;;;;;;-144.99;58.04;52170.91;5063152;28;20454;-68
2023/03/06 11:13:22;;;;;;;;;;;;;;;-144.99;58.92;52174.97;5063596;28;20260;-69
2023/03/06 11:15:55;;;;;;;;;;;;;;;-144.99;58.80;52174.97;5065275;28;19932;-69
2023/03/06 11:18:26;;;;;;;;;;;;;;;-144.99;58.97;52191.28;5065879;28;19967;-68
2023/03/06 11:20:54;;;;;;;;;;;;;;;-144.99;57.75;52203.50;5063069;28;20317;-68
2023/03/06 11:23:29;;;;;;;;;;;;;;;-144.99;58.83;52232.03;5066354;28;19971;-67
2023/03/06 11:25:57;;;;;;;;;;;;;;;-144.99;59.26;52268.72;5075043;28;20385;-69
2023/03/06 11:28:25;;;;;;;;;;;;;;;-144.99;59.04;52264.66;5069518;28;19997;-68
2023/03/06 11:30:54;;;;;;;;;;;;;;;-144.99;59.85;52323.75;5067730;28;19936;-68
2023/03/06 11:33:26;;;;;;;;;;;;;;;-144.99;61.61;52403.25;5070458;28;19929;-66
2023/03/06 11:35:56;;;;;;;;;;;;;;;-144.99;62.22;52358.41;5069117;28;19987;-70
2023/03/06 11:38:31;;;;;;;;;;;;;;;-144.99;61.47;52425.66;5075878;28;19935;-70
2023/03/06 11:40:59;;;;;;;;;;;;;;;-144.99;61.78;52305.41;5075995;28;19964;-69
2023/03/06 11:43:29;;;;;;;;;;;;;;;-144.99;61.26;52323.75;5075794;28;20178;-70
2023/03/06 11:45:59;;;;;;;;;;;;;;;-144.99;60.90;52285.03;5076293;28;20741;-72
2023/03/06 11:48:28;;;;;;;;;;;;;;;-144.99;60.92;52254.47;5079222;28;19931;-72
2023/03/06 11:50:57;;;;;;;;;;;;;;;-144.99;59.29;52287.06;5066902;28;20352;-69
2023/03/06 11:53:28;;;;;;;;;;;;;;;-144.99;59.87;52268.72;5070569;28;19929;-69
2023/03/06 11:55:59;;;;;;;;;;;;;;;-144.99;60.25;52280.97;5079794;28;19928;-68
2023/03/06 11:58:40;;;;;;;;;;;;;;;-144.99;60.26;52264.66;5071527;28;20377;-69
2023/03/06 12:01:10;;;;;;;;;;;;;;;-144.99;59.42;52285.03;5077389;28;19935;-68
2023/03/06 12:04:01;;;;;;;;;;;;;;;-144.99;58.48;52211.66;5068701;28;20449;-68
2023/03/06 12:06:34;;;;;;;;;;;;;;;-144.99;57.78;52170.91;5055402;28;20448;-68
2023/03/06 12:09:13;;;;;;;;;;;;;;;-144.99;56.38;52211.66;5073551;28;20049;-68
2023/03/06 12:11:43;;;;;;;;;;;;;;;-144.99;57.30;52256.50;5069509;28;19924;-70
2023/03/06 12:14:20;;;;;;;;;;;;;;;-144.99;56.97;52260.56;5070140;28;19928;-68
2023/03/06 12:17:02;;;;;;;;;;;;;;;-144.99;56.92;52276.88;5070134;28;19962;-69
2023/03/06 12:19:38;;;;;;;;;;;;;;;-144.99;57.03;52264.66;5072916;28;19932;-68
2023/03/06 12:22:21;;;;;;;;;;;;;;;-144.99;58.39;52391.03;5068668;28;19932;-69